Meteo Giornale » Osservazioni meteo Stati Uniti (USA) » Huron
ore: 08:55 - Osservazioni Meteo Huron
Lat. 44° 23' N Lon. 98° 13' W Alt. 392 metri s.l.m.
16 °C
Sereno
Temp. 24 Ore
14 °C
34 °C
Ovest/Nord-Ovest
13 Km/h
Dew point 13 °C
Umidità 82 %
Visibilità 10 Km
Il sole sorge alle ore 06:54
Il sole tramonta alle ore 20:11
| Data e Ora | Cielo e Fenomeni | T °C | DP °C | Um. % | Pres. hPa | Vis. km | Vento km/h | |
|---|---|---|---|---|---|---|---|---|
| Oggi h: 08:55 | Sereno | 16 | 13 | 82 | 1014 | 10 | O/NO 13 | |
| Oggi h: 07:55 | Sereno | 15 | 13 | 87 | 1013 | 10 | O/NO 9.3 | |
| Oggi h: 06:55 | Sereno | 14 | 13 | 93 | 1012 | 10 | O/NO 11.1 | |
| Oggi h: 05:55 | Sereno | 15 | 14 | 93 | 1012 | 10 | O/NO 9.3 | |
| Oggi h: 04:55 | Sereno | 17 | 15 | 88 | 1010 | 10 | NO 14.8 | |
| Oggi h: 03:55 | Sereno | 17 | 16 | 93 | 1010 | 10 | NO 14.8 | |
| Oggi h: 02:55 | Sereno | 19 | 17 | 88 | 1009 | 10 | N 11.1 | |
| Oggi h: 01:55 | Sereno | 21 | 17 | 77 | 1008 | 10 | N/NO 20.3 | |
| Oggi h: 00:55 | Sereno | 21 | 18 | 82 | 1008 | 10 | N/NO 37 | |
| Ieri h: 23:55 | Sereno | 24 | 21 | 83 | 1007 | 10 | N 13 | |
| Ieri h: 22:55 | Sereno | 27 | 17 | 54 | 1006 | 10 | SO 9.3 | |
| Ieri h: 21:55 | Sereno | 26 | 18 | 61 | 1006 | 10 | S 9.3 | |
| Ieri h: 20:55 | Sereno | 29 | 18 | 51 | 1005 | 10 | S 13 | |
| Ieri h: 19:55 | Sereno | 30 | 18 | 48 | 1005 | 10 | S 7.4 | |
| Ieri h: 18:55 | Sereno | 32 | 18 | 43 | 1005 | 10 | O/SO 7.4 | |
| Ieri h: 17:55 | Sereno | 33 | 17 | 38 | 1005 | 10 | O/SO 9.3 | |
| Ieri h: 16:55 | Sereno | 33 | 16 | 36 | 1005 | 10 | S/SO 14.8 | |
| Ieri h: 15:55 | Sereno | 33 | 16 | 36 | 1005 | 10 | O/SO 18.5 | |
| Ieri h: 14:55 | Sereno | 34 | 17 | 36 | 1005 | 10 | S/SO 20.3 | |
| Ieri h: 13:55 | Sereno | 32 | 17 | 40 | 1005 | 10 | S/SO 16.7 | |
| Ieri h: 12:55 | Sereno | 32 | 18 | 43 | 1005 | 10 | SO 16.7 | |
| Ieri h: 11:55 | Sereno | 30 | 17 | 45 | 1006 | 10 | O/SO 7.4 | |
| Ieri h: 10:55 | Sereno | 28 | 19 | 58 | 1006 | 10 | O/SO 14.8 | |
| Ieri h: 09:55 | Sereno | 26 | 20 | 69 | 1006 | 10 | S/SO 11.1 | |



